Cabernet Sauvignon Commodore — WDB3227 — position and weather

sailwx.info

Track history (hours):
 
Tides and Currents Weather Stations Pressure Air Temp Water Temp Dewpoint Dewpoint Depression Visibility Wind Speed Wind Dir Waves Ship Positions

Cabernet Sauvignon Commodore

Owner: Commodore Dining Cruises, INC., Alameda, CA. More information available from US FCC via Universal Licensing System and Coast Guard Vessel Documentation Center.

Last reported at 2018-Jun-17 05:48 UTC. Time now 2018-Jun-18 05:32 UTC.
Position N 37°48' W 122°17'.

Length 30 m; draft 2 m.

Type: Passenger vessel. MMSI: 366884810.

Date/timePositionNaut miles runAvg speedWind from/ knotsBaromVisibWave heightAir tempDewpointWater temp
2018-Jun-17 05:48N 37°48' W 122°17'1 3.6
2018-Jun-17 05:30N 37°48' W 122°18'3 6.3
2018-Jun-17 04:59N 37°48' W 122°22'1 1.4
2018-Jun-17 04:30N 37°48' W 122°23'3 6.9
2018-Jun-17 04:00N 37°48' W 122°18'3 5.0
2018-Jun-17 03:30N 37°47' W 122°15'2 4.8
2018-Jun-17 03:00N 37°48' W 122°18'1 1.2
2018-Jun-17 02:30N 37°48' W 122°19'2 4.2
2018-Jun-17 02:00N 37°47' W 122°16'1 2.8
2018-Jun-17 01:30N 37°47' W 122°15'2 3.1
2018-Jun-17 01:00N 37°47' W 122°17'0 0.0
2018-Jun-17 00:30N 37°47' W 122°17'0 0.0
2018-Jun-16 17:54N 37°47' W 122°17'  
2018-Jun-11 02:11N 37°48' W 122°17'0 0.0
2018-Jun-11 02:01N 37°48' W 122°17'1 2.9
2018-Jun-11 01:30N 37°48' W 122°18'3 6.1
2018-Jun-11 01:00N 37°47' W 122°22'3 6.0
2018-Jun-11 00:31N 37°50' W 122°25'1 1.3
2018-Jun-11 00:01N 37°49' W 122°25'2 4.0
2018-Jun-10 23:31N 37°48' W 122°23'1 2.7
2018-Jun-10 23:01N 37°47' W 122°22'3 5.7
2018-Jun-10 22:30N 37°48' W 122°19'2 3.6
2018-Jun-10 22:01N 37°47' W 122°17'0 0.0
2018-Jun-10 21:31N 37°47' W 122°17'0 0.0
2018-Jun-10 05:01N 37°48' W 122°17'0 0.0
2018-Jun-10 05:01N 37°48' W 122°17'2 4.1
2018-Jun-10 04:30N 37°48' W 122°19'3 5.0
2018-Jun-10 04:00N 37°48' W 122°22'3 5.8
2018-Jun-10 03:30N 37°50' W 122°25'1 2.4
2018-Jun-10 03:00N 37°49' W 122°27'2 4.8
2018-Jun-10 02:30N 37°48' W 122°24'2 4.8
2018-Jun-10 02:00N 37°48' W 122°21'3 5.9
2018-Jun-10 01:30N 37°48' W 122°17'0 0.5
2018-Jun-10 01:00N 37°47' W 122°17'0 0.0
2018-Jun-10 00:31N 37°47' W 122°17'0 0.0
2018-Jun-10 00:00N 37°47' W 122°17'0 0.0
2018-Jun-08 10:47N 37°48' W 122°17'1 3.8
2018-Jun-08 10:30N 37°47' W 122°18'3 6.6
2018-Jun-08 10:00N 37°48' W 122°22'2 4.2
2018-Jun-08 09:30N 37°49' W 122°24'3 5.1
2018-Jun-08 09:00N 37°49' W 122°28'1 2.5
2018-Jun-08 08:30N 37°49' W 122°26'3 6.3
2018-Jun-08 08:00N 37°48' W 122°22'4 7.5
2018-Jun-08 07:30N 37°48' W 122°18'1 1.6
2018-Jun-08 07:00N 37°47' W 122°17'0 0.0
2018-Jun-08 06:30N 37°47' W 122°17'0 0.0
2018-Jun-08 05:51N 37°47' W 122°17'  
Track history (hours):
 
Tides and Currents Weather Stations Pressure Air Temp Water Temp Dewpoint Dewpoint Depression Visibility Wind Speed Wind Dir Waves Ship Positions

Cabernet Sauvignon Commodore

Owner: Commodore Dining Cruises, INC., Alameda, CA. More information available from US FCC via Universal Licensing System and Coast Guard Vessel Documentation Center.

Last reported at 2018-Jun-17 05:48 UTC. Time now 2018-Jun-18 05:32 UTC.
Position N 37°48' W 122°17'.

Length 30 m; draft 2 m.

Type: Passenger vessel. MMSI: 366884810.

Date/timePositionNaut miles runAvg speedWind from/ knotsBaromVisibWave heightAir tempDewpointWater temp
2018-Jun-17 05:48N 37°48' W 122°17'1 3.6
2018-Jun-17 05:30N 37°48' W 122°18'3 6.3
2018-Jun-17 04:59N 37°48' W 122°22'1 1.4
2018-Jun-17 04:30N 37°48' W 122°23'3 6.9
2018-Jun-17 04:00N 37°48' W 122°18'3 5.0
2018-Jun-17 03:30N 37°47' W 122°15'2 4.8
2018-Jun-17 03:00N 37°48' W 122°18'1 1.2
2018-Jun-17 02:30N 37°48' W 122°19'2 4.2
2018-Jun-17 02:00N 37°47' W 122°16'1 2.8
2018-Jun-17 01:30N 37°47' W 122°15'2 3.1
2018-Jun-17 01:00N 37°47' W 122°17'0 0.0
2018-Jun-17 00:30N 37°47' W 122°17'0 0.0
2018-Jun-16 17:54N 37°47' W 122°17'  
2018-Jun-11 02:11N 37°48' W 122°17'0 0.0
2018-Jun-11 02:01N 37°48' W 122°17'1 2.9
2018-Jun-11 01:30N 37°48' W 122°18'3 6.1
2018-Jun-11 01:00N 37°47' W 122°22'3 6.0
2018-Jun-11 00:31N 37°50' W 122°25'1 1.3
2018-Jun-11 00:01N 37°49' W 122°25'2 4.0
2018-Jun-10 23:31N 37°48' W 122°23'1 2.7
2018-Jun-10 23:01N 37°47' W 122°22'3 5.7
2018-Jun-10 22:30N 37°48' W 122°19'2 3.6
2018-Jun-10 22:01N 37°47' W 122°17'0 0.0
2018-Jun-10 21:31N 37°47' W 122°17'0 0.0
2018-Jun-10 05:01N 37°48' W 122°17'0 0.0
2018-Jun-10 05:01N 37°48' W 122°17'2 4.1
2018-Jun-10 04:30N 37°48' W 122°19'3 5.0
2018-Jun-10 04:00N 37°48' W 122°22'3 5.8
2018-Jun-10 03:30N 37°50' W 122°25'1 2.4
2018-Jun-10 03:00N 37°49' W 122°27'2 4.8
2018-Jun-10 02:30N 37°48' W 122°24'2 4.8
2018-Jun-10 02:00N 37°48' W 122°21'3 5.9
2018-Jun-10 01:30N 37°48' W 122°17'0 0.5
2018-Jun-10 01:00N 37°47' W 122°17'0 0.0
2018-Jun-10 00:31N 37°47' W 122°17'0 0.0
2018-Jun-10 00:00N 37°47' W 122°17'0 0.0
2018-Jun-08 10:47N 37°48' W 122°17'1 3.8
2018-Jun-08 10:30N 37°47' W 122°18'3 6.6
2018-Jun-08 10:00N 37°48' W 122°22'2 4.2
2018-Jun-08 09:30N 37°49' W 122°24'3 5.1
2018-Jun-08 09:00N 37°49' W 122°28'1 2.5
2018-Jun-08 08:30N 37°49' W 122°26'3 6.3
2018-Jun-08 08:00N 37°48' W 122°22'4 7.5
2018-Jun-08 07:30N 37°48' W 122°18'1 1.6
2018-Jun-08 07:00N 37°47' W 122°17'0 0.0
2018-Jun-08 06:30N 37°47' W 122°17'0 0.0
2018-Jun-08 05:51N 37°47' W 122°17'  

Dump ship's entire track history